sensor_id;sensor_type;location;lat;lon;timestamp;P1;durP1;ratioP1;P2;durP2;ratioP2
54408;SDS011;40315;48.620;9.828;2022-12-10T00:01:34;34.03;;;18.43;;
54408;SDS011;40315;48.620;9.828;2022-12-10T00:04:02;33.17;;;18.80;;
54408;SDS011;40315;48.620;9.828;2022-12-10T00:06:30;29.17;;;17.07;;
54408;SDS011;40315;48.620;9.828;2022-12-10T00:08:58;29.00;;;15.90;;
54408;SDS011;40315;48.620;9.828;2022-12-10T00:11:26;27.87;;;16.53;;
54408;SDS011;40315;48.620;9.828;2022-12-10T00:13:54;27.43;;;15.40;;
54408;SDS011;40315;48.620;9.828;2022-12-10T00:16:23;28.60;;;16.03;;
54408;SDS011;40315;48.620;9.828;2022-12-10T00:18:52;29.47;;;15.07;;
54408;SDS011;40315;48.620;9.828;2022-12-10T00:21:21;29.77;;;16.30;;
54408;SDS011;40315;48.620;9.828;2022-12-10T00:23:49;29.87;;;16.60;;
54408;SDS011;40315;48.620;9.828;2022-12-10T00:26:17;27.50;;;15.83;;
54408;SDS011;40315;48.620;9.828;2022-12-10T00:28:46;30.27;;;16.37;;
54408;SDS011;40315;48.620;9.828;2022-12-10T00:31:14;28.73;;;16.00;;
54408;SDS011;40315;48.620;9.828;2022-12-10T00:33:44;25.50;;;15.23;;
54408;SDS011;40315;48.620;9.828;2022-12-10T00:36:12;25.87;;;15.10;;
54408;SDS011;40315;48.620;9.828;2022-12-10T00:38:43;26.10;;;14.27;;
54408;SDS011;40315;48.620;9.828;2022-12-10T00:41:11;27.10;;;15.57;;
54408;SDS011;40315;48.620;9.828;2022-12-10T00:43:39;29.73;;;15.47;;
54408;SDS011;40315;48.620;9.828;2022-12-10T00:46:07;28.20;;;15.17;;
54408;SDS011;40315;48.620;9.828;2022-12-10T00:48:34;24.90;;;14.40;;
54408;SDS011;40315;48.620;9.828;2022-12-10T00:51:04;27.33;;;14.77;;
54408;SDS011;40315;48.620;9.828;2022-12-10T00:53:32;25.87;;;14.33;;
54408;SDS011;40315;48.620;9.828;2022-12-10T00:56:01;27.67;;;15.03;;
54408;SDS011;40315;48.620;9.828;2022-12-10T00:58:30;26.93;;;15.13;;
54408;SDS011;40315;48.620;9.828;2022-12-10T01:01:06;25.80;;;15.03;;
54408;SDS011;40315;48.620;9.828;2022-12-10T01:03:34;22.20;;;13.80;;
54408;SDS011;40315;48.620;9.828;2022-12-10T01:06:08;24.00;;;14.60;;
54408;SDS011;40315;48.620;9.828;2022-12-10T01:08:36;26.40;;;15.50;;
54408;SDS011;40315;48.620;9.828;2022-12-10T01:11:03;25.57;;;14.33;;
54408;SDS011;40315;48.620;9.828;2022-12-10T01:13:30;22.30;;;13.43;;
54408;SDS011;40315;48.620;9.828;2022-12-10T01:15:59;25.27;;;14.20;;
54408;SDS011;40315;48.620;9.828;2022-12-10T01:18:27;25.20;;;14.93;;
54408;SDS011;40315;48.620;9.828;2022-12-10T01:20:54;26.33;;;14.90;;
54408;SDS011;40315;48.620;9.828;2022-12-10T01:23:22;26.60;;;15.20;;
54408;SDS011;40315;48.620;9.828;2022-12-10T01:25:50;27.23;;;15.33;;
54408;SDS011;40315;48.620;9.828;2022-12-10T01:28:17;25.33;;;13.83;;
54408;SDS011;40315;48.620;9.828;2022-12-10T01:30:46;26.03;;;15.37;;
54408;SDS011;40315;48.620;9.828;2022-12-10T01:33:13;28.93;;;15.70;;
54408;SDS011;40315;48.620;9.828;2022-12-10T01:35:41;29.23;;;15.10;;
54408;SDS011;40315;48.620;9.828;2022-12-10T01:38:08;28.20;;;15.47;;
54408;SDS011;40315;48.620;9.828;2022-12-10T01:40:37;29.67;;;15.90;;
54408;SDS011;40315;48.620;9.828;2022-12-10T01:49:27;27.53;;;15.27;;
54408;SDS011;40315;48.620;9.828;2022-12-10T01:51:59;26.67;;;15.33;;
54408;SDS011;40315;48.620;9.828;2022-12-10T01:54:30;26.47;;;15.13;;
54408;SDS011;40315;48.620;9.828;2022-12-10T01:57:00;25.40;;;14.23;;
54408;SDS011;40315;48.620;9.828;2022-12-10T01:59:30;24.10;;;14.97;;
54408;SDS011;40315;48.620;9.828;2022-12-10T02:02:00;25.90;;;15.47;;
54408;SDS011;40315;48.620;9.828;2022-12-10T02:04:36;27.57;;;15.50;;
54408;SDS011;40315;48.620;9.828;2022-12-10T02:07:18;28.90;;;16.47;;
54408;SDS011;40315;48.620;9.828;2022-12-10T02:09:50;28.20;;;15.77;;
54408;SDS011;40315;48.620;9.828;2022-12-10T02:12:28;27.43;;;15.00;;
54408;SDS011;40315;48.620;9.828;2022-12-10T02:15:02;30.00;;;15.77;;
54408;SDS011;40315;48.620;9.828;2022-12-10T02:17:34;27.20;;;15.33;;
54408;SDS011;40315;48.620;9.828;2022-12-10T02:20:05;28.40;;;15.83;;
54408;SDS011;40315;48.620;9.828;2022-12-10T02:22:35;26.90;;;15.33;;
54408;SDS011;40315;48.620;9.828;2022-12-10T02:25:07;27.13;;;15.20;;
54408;SDS011;40315;48.620;9.828;2022-12-10T02:27:42;26.83;;;15.30;;
54408;SDS011;40315;48.620;9.828;2022-12-10T02:30:15;29.67;;;15.33;;
54408;SDS011;40315;48.620;9.828;2022-12-10T02:32:43;28.50;;;15.77;;
54408;SDS011;40315;48.620;9.828;2022-12-10T02:35:15;26.60;;;15.23;;
54408;SDS011;40315;48.620;9.828;2022-12-10T02:37:47;26.37;;;15.73;;
54408;SDS011;40315;48.620;9.828;2022-12-10T02:40:18;29.33;;;15.73;;
54408;SDS011;40315;48.620;9.828;2022-12-10T02:42:52;25.33;;;14.53;;
54408;SDS011;40315;48.620;9.828;2022-12-10T02:45:25;25.77;;;15.00;;
54408;SDS011;40315;48.620;9.828;2022-12-10T02:47:55;26.93;;;15.93;;
54408;SDS011;40315;48.620;9.828;2022-12-10T02:50:30;26.93;;;15.17;;
54408;SDS011;40315;48.620;9.828;2022-12-10T02:52:58;27.73;;;15.70;;
54408;SDS011;40315;48.620;9.828;2022-12-10T02:55:24;22.97;;;14.30;;
54408;SDS011;40315;48.620;9.828;2022-12-10T02:58:06;28.40;;;15.70;;
54408;SDS011;40315;48.620;9.828;2022-12-10T03:00:46;26.47;;;15.17;;
54408;SDS011;40315;48.620;9.828;2022-12-10T03:03:23;28.00;;;15.47;;
54408;SDS011;40315;48.620;9.828;2022-12-10T03:05:57;27.03;;;14.50;;
54408;SDS011;40315;48.620;9.828;2022-12-10T03:08:32;24.73;;;14.63;;
54408;SDS011;40315;48.620;9.828;2022-12-10T03:11:05;24.70;;;14.10;;
54408;SDS011;40315;48.620;9.828;2022-12-10T03:13:37;25.73;;;14.13;;
54408;SDS011;40315;48.620;9.828;2022-12-10T03:16:10;26.73;;;14.93;;
54408;SDS011;40315;48.620;9.828;2022-12-10T03:18:40;25.83;;;14.27;;
54408;SDS011;40315;48.620;9.828;2022-12-10T03:21:09;26.87;;;13.80;;
54408;SDS011;40315;48.620;9.828;2022-12-10T03:23:38;25.90;;;14.23;;
54408;SDS011;40315;48.620;9.828;2022-12-10T03:26:07;23.20;;;14.03;;
54408;SDS011;40315;48.620;9.828;2022-12-10T03:28:38;26.13;;;14.90;;
54408;SDS011;40315;48.620;9.828;2022-12-10T03:31:08;23.73;;;14.07;;
54408;SDS011;40315;48.620;9.828;2022-12-10T03:33:39;26.37;;;14.43;;
54408;SDS011;40315;48.620;9.828;2022-12-10T03:36:06;29.90;;;15.67;;
54408;SDS011;40315;48.620;9.828;2022-12-10T03:38:36;24.27;;;13.67;;
54408;SDS011;40315;48.620;9.828;2022-12-10T03:41:04;22.87;;;13.43;;
54408;SDS011;40315;48.620;9.828;2022-12-10T03:43:31;22.93;;;14.30;;
54408;SDS011;40315;48.620;9.828;2022-12-10T03:45:58;25.53;;;14.37;;
54408;SDS011;40315;48.620;9.828;2022-12-10T03:48:26;25.00;;;14.67;;
54408;SDS011;40315;48.620;9.828;2022-12-10T03:50:53;24.13;;;14.03;;
54408;SDS011;40315;48.620;9.828;2022-12-10T03:53:20;24.97;;;15.57;;
54408;SDS011;40315;48.620;9.828;2022-12-10T03:55:47;25.23;;;14.93;;
54408;SDS011;40315;48.620;9.828;2022-12-10T03:58:16;25.73;;;14.53;;
54408;SDS011;40315;48.620;9.828;2022-12-10T04:00:43;25.97;;;14.90;;
54408;SDS011;40315;48.620;9.828;2022-12-10T04:03:10;24.87;;;13.93;;
54408;SDS011;40315;48.620;9.828;2022-12-10T04:05:38;25.60;;;14.80;;
54408;SDS011;40315;48.620;9.828;2022-12-10T04:08:05;24.47;;;13.43;;
54408;SDS011;40315;48.620;9.828;2022-12-10T04:10:34;25.70;;;14.07;;
54408;SDS011;40315;48.620;9.828;2022-12-10T04:13:02;23.93;;;14.50;;
54408;SDS011;40315;48.620;9.828;2022-12-10T04:15:47;23.10;;;13.87;;
54408;SDS011;40315;48.620;9.828;2022-12-10T04:18:31;21.43;;;13.33;;
54408;SDS011;40315;48.620;9.828;2022-12-10T04:20:59;24.97;;;13.50;;
54408;SDS011;40315;48.620;9.828;2022-12-10T04:23:44;22.53;;;13.17;;
54408;SDS011;40315;48.620;9.828;2022-12-10T04:26:28;22.70;;;13.20;;
54408;SDS011;40315;48.620;9.828;2022-12-10T04:29:13;26.83;;;13.73;;
54408;SDS011;40315;48.620;9.828;2022-12-10T04:31:40;21.57;;;12.77;;
54408;SDS011;40315;48.620;9.828;2022-12-10T04:34:09;23.27;;;13.53;;
54408;SDS011;40315;48.620;9.828;2022-12-10T04:36:37;22.13;;;13.63;;
54408;SDS011;40315;48.620;9.828;2022-12-10T04:39:05;23.10;;;14.20;;
54408;SDS011;40315;48.620;9.828;2022-12-10T04:41:32;24.97;;;13.93;;
54408;SDS011;40315;48.620;9.828;2022-12-10T04:43:59;22.33;;;13.90;;
54408;SDS011;40315;48.620;9.828;2022-12-10T04:46:27;23.40;;;14.10;;
54408;SDS011;40315;48.620;9.828;2022-12-10T04:48:54;22.23;;;13.40;;
54408;SDS011;40315;48.620;9.828;2022-12-10T04:51:21;22.27;;;13.57;;
54408;SDS011;40315;48.620;9.828;2022-12-10T04:53:50;25.50;;;14.53;;
54408;SDS011;40315;48.620;9.828;2022-12-10T04:56:17;23.07;;;13.67;;
54408;SDS011;40315;48.620;9.828;2022-12-10T04:58:44;21.83;;;13.43;;
54408;SDS011;40315;48.620;9.828;2022-12-10T05:01:12;22.57;;;13.90;;
54408;SDS011;40315;48.620;9.828;2022-12-10T05:03:39;21.70;;;13.50;;
54408;SDS011;40315;48.620;9.828;2022-12-10T05:06:09;24.50;;;14.23;;
54408;SDS011;40315;48.620;9.828;2022-12-10T05:08:38;23.90;;;13.13;;
54408;SDS011;40315;48.620;9.828;2022-12-10T05:11:08;24.47;;;13.37;;
54408;SDS011;40315;48.620;9.828;2022-12-10T05:13:38;25.80;;;14.00;;
54408;SDS011;40315;48.620;9.828;2022-12-10T05:16:06;24.63;;;13.80;;
54408;SDS011;40315;48.620;9.828;2022-12-10T05:18:35;21.97;;;12.93;;
54408;SDS011;40315;48.620;9.828;2022-12-10T05:21:04;22.80;;;12.97;;
54408;SDS011;40315;48.620;9.828;2022-12-10T05:23:32;20.90;;;13.73;;
54408;SDS011;40315;48.620;9.828;2022-12-10T05:26:00;23.17;;;13.80;;
54408;SDS011;40315;48.620;9.828;2022-12-10T05:28:30;24.87;;;13.47;;
54408;SDS011;40315;48.620;9.828;2022-12-10T05:30:58;25.00;;;13.87;;
54408;SDS011;40315;48.620;9.828;2022-12-10T05:33:26;23.70;;;13.87;;
54408;SDS011;40315;48.620;9.828;2022-12-10T05:35:54;21.77;;;13.30;;
54408;SDS011;40315;48.620;9.828;2022-12-10T05:38:21;20.27;;;12.30;;
54408;SDS011;40315;48.620;9.828;2022-12-10T05:40:51;22.60;;;12.97;;
54408;SDS011;40315;48.620;9.828;2022-12-10T05:43:18;21.43;;;13.00;;
54408;SDS011;40315;48.620;9.828;2022-12-10T05:45:47;19.87;;;13.23;;
54408;SDS011;40315;48.620;9.828;2022-12-10T05:48:15;20.53;;;12.90;;
54408;SDS011;40315;48.620;9.828;2022-12-10T05:50:42;21.37;;;12.77;;
54408;SDS011;40315;48.620;9.828;2022-12-10T05:53:09;21.60;;;13.03;;
54408;SDS011;40315;48.620;9.828;2022-12-10T05:55:39;24.30;;;13.57;;
54408;SDS011;40315;48.620;9.828;2022-12-10T05:58:06;24.10;;;13.43;;
54408;SDS011;40315;48.620;9.828;2022-12-10T06:00:33;22.67;;;13.50;;
54408;SDS011;40315;48.620;9.828;2022-12-10T06:03:01;23.03;;;12.93;;
54408;SDS011;40315;48.620;9.828;2022-12-10T06:05:28;21.53;;;13.07;;
54408;SDS011;40315;48.620;9.828;2022-12-10T06:07:58;23.03;;;13.13;;
54408;SDS011;40315;48.620;9.828;2022-12-10T06:10:27;23.47;;;13.83;;
54408;SDS011;40315;48.620;9.828;2022-12-10T06:12:54;24.33;;;13.60;;
54408;SDS011;40315;48.620;9.828;2022-12-10T06:15:21;20.77;;;13.17;;
54408;SDS011;40315;48.620;9.828;2022-12-10T06:17:48;24.87;;;14.00;;
54408;SDS011;40315;48.620;9.828;2022-12-10T06:20:16;21.17;;;12.83;;
54408;SDS011;40315;48.620;9.828;2022-12-10T06:22:43;21.20;;;12.33;;
54408;SDS011;40315;48.620;9.828;2022-12-10T06:25:10;21.73;;;12.93;;
54408;SDS011;40315;48.620;9.828;2022-12-10T06:27:38;19.97;;;12.13;;
54408;SDS011;40315;48.620;9.828;2022-12-10T06:30:05;18.67;;;11.80;;
54408;SDS011;40315;48.620;9.828;2022-12-10T06:32:33;22.03;;;13.40;;
54408;SDS011;40315;48.620;9.828;2022-12-10T06:35:00;25.00;;;14.20;;
54408;SDS011;40315;48.620;9.828;2022-12-10T06:37:29;21.50;;;13.03;;
54408;SDS011;40315;48.620;9.828;2022-12-10T06:39:56;21.20;;;12.30;;
54408;SDS011;40315;48.620;9.828;2022-12-10T06:42:23;22.20;;;13.93;;
54408;SDS011;40315;48.620;9.828;2022-12-10T06:44:50;23.33;;;13.37;;
54408;SDS011;40315;48.620;9.828;2022-12-10T06:47:17;22.73;;;13.73;;
54408;SDS011;40315;48.620;9.828;2022-12-10T06:49:44;24.93;;;14.30;;
54408;SDS011;40315;48.620;9.828;2022-12-10T06:52:11;23.13;;;14.30;;
54408;SDS011;40315;48.620;9.828;2022-12-10T06:54:40;23.73;;;14.43;;
54408;SDS011;40315;48.620;9.828;2022-12-10T06:57:07;23.40;;;14.47;;
54408;SDS011;40315;48.620;9.828;2022-12-10T06:59:37;21.20;;;12.90;;
54408;SDS011;40315;48.620;9.828;2022-12-10T07:02:04;21.13;;;13.37;;
54408;SDS011;40315;48.620;9.828;2022-12-10T07:04:31;20.93;;;12.80;;
54408;SDS011;40315;48.620;9.828;2022-12-10T07:06:58;33.50;;;17.60;;
54408;SDS011;40315;48.620;9.828;2022-12-10T07:09:25;23.80;;;14.70;;
54408;SDS011;40315;48.620;9.828;2022-12-10T07:11:56;25.43;;;15.97;;
54408;SDS011;40315;48.620;9.828;2022-12-10T07:14:24;24.07;;;14.13;;
54408;SDS011;40315;48.620;9.828;2022-12-10T07:16:51;25.97;;;16.43;;
54408;SDS011;40315;48.620;9.828;2022-12-10T07:19:18;28.60;;;16.60;;
54408;SDS011;40315;48.620;9.828;2022-12-10T07:21:45;27.97;;;17.40;;
54408;SDS011;40315;48.620;9.828;2022-12-10T07:24:13;23.80;;;14.90;;
54408;SDS011;40315;48.620;9.828;2022-12-10T07:26:45;26.10;;;16.87;;
54408;SDS011;40315;48.620;9.828;2022-12-10T07:29:14;30.93;;;16.70;;
54408;SDS011;40315;48.620;9.828;2022-12-10T07:31:43;38.13;;;19.77;;
54408;SDS011;40315;48.620;9.828;2022-12-10T07:34:10;27.47;;;16.17;;
54408;SDS011;40315;48.620;9.828;2022-12-10T07:36:38;28.07;;;15.37;;
54408;SDS011;40315;48.620;9.828;2022-12-10T07:39:06;25.47;;;15.07;;
54408;SDS011;40315;48.620;9.828;2022-12-10T07:41:33;26.53;;;14.40;;
54408;SDS011;40315;48.620;9.828;2022-12-10T07:44:01;27.07;;;14.77;;
54408;SDS011;40315;48.620;9.828;2022-12-10T07:46:33;23.27;;;14.73;;
54408;SDS011;40315;48.620;9.828;2022-12-10T07:49:00;26.57;;;15.60;;
54408;SDS011;40315;48.620;9.828;2022-12-10T07:51:28;27.03;;;15.10;;
54408;SDS011;40315;48.620;9.828;2022-12-10T07:53:55;27.13;;;15.27;;
54408;SDS011;40315;48.620;9.828;2022-12-10T07:56:23;28.47;;;15.83;;
54408;SDS011;40315;48.620;9.828;2022-12-10T07:58:51;27.40;;;15.57;;
54408;SDS011;40315;48.620;9.828;2022-12-10T08:01:19;28.53;;;15.20;;
54408;SDS011;40315;48.620;9.828;2022-12-10T08:03:50;28.23;;;16.63;;
54408;SDS011;40315;48.620;9.828;2022-12-10T08:06:18;27.13;;;14.70;;
54408;SDS011;40315;48.620;9.828;2022-12-10T08:08:46;27.90;;;15.53;;
54408;SDS011;40315;48.620;9.828;2022-12-10T08:11:14;28.20;;;15.90;;
54408;SDS011;40315;48.620;9.828;2022-12-10T08:13:43;27.13;;;15.73;;
54408;SDS011;40315;48.620;9.828;2022-12-10T08:16:11;27.30;;;15.87;;
54408;SDS011;40315;48.620;9.828;2022-12-10T08:18:40;27.70;;;15.47;;
54408;SDS011;40315;48.620;9.828;2022-12-10T08:21:09;27.33;;;16.00;;
54408;SDS011;40315;48.620;9.828;2022-12-10T08:23:42;28.83;;;18.00;;
54408;SDS011;40315;48.620;9.828;2022-12-10T08:26:10;28.30;;;18.27;;
54408;SDS011;40315;48.620;9.828;2022-12-10T08:28:39;26.77;;;15.30;;
54408;SDS011;40315;48.620;9.828;2022-12-10T08:31:07;30.83;;;18.07;;
54408;SDS011;40315;48.620;9.828;2022-12-10T08:33:36;30.10;;;17.47;;
54408;SDS011;40315;48.620;9.828;2022-12-10T08:36:06;29.83;;;17.27;;
54408;SDS011;40315;48.620;9.828;2022-12-10T08:38:37;26.47;;;15.83;;
54408;SDS011;40315;48.620;9.828;2022-12-10T08:41:07;35.00;;;19.00;;
54408;SDS011;40315;48.620;9.828;2022-12-10T08:43:36;29.47;;;16.87;;
54408;SDS011;40315;48.620;9.828;2022-12-10T08:46:04;34.00;;;18.27;;
54408;SDS011;40315;48.620;9.828;2022-12-10T08:48:34;29.87;;;17.53;;
54408;SDS011;40315;48.620;9.828;2022-12-10T08:51:02;31.07;;;18.43;;
54408;SDS011;40315;48.620;9.828;2022-12-10T08:53:33;33.93;;;18.80;;
54408;SDS011;40315;48.620;9.828;2022-12-10T08:56:00;32.33;;;18.93;;
54408;SDS011;40315;48.620;9.828;2022-12-10T08:58:28;34.33;;;17.97;;
54408;SDS011;40315;48.620;9.828;2022-12-10T09:00:55;34.27;;;19.20;;
54408;SDS011;40315;48.620;9.828;2022-12-10T09:03:22;35.43;;;18.80;;
54408;SDS011;40315;48.620;9.828;2022-12-10T09:05:50;35.07;;;19.50;;
54408;SDS011;40315;48.620;9.828;2022-12-10T09:08:17;36.50;;;19.67;;
54408;SDS011;40315;48.620;9.828;2022-12-10T09:10:45;34.63;;;19.77;;
54408;SDS011;40315;48.620;9.828;2022-12-10T09:13:15;33.43;;;17.87;;
54408;SDS011;40315;48.620;9.828;2022-12-10T09:15:49;43.53;;;22.67;;
54408;SDS011;40315;48.620;9.828;2022-12-10T09:18:19;37.13;;;19.60;;
54408;SDS011;40315;48.620;9.828;2022-12-10T09:20:49;33.97;;;18.20;;
54408;SDS011;40315;48.620;9.828;2022-12-10T09:23:16;34.73;;;18.80;;
54408;SDS011;40315;48.620;9.828;2022-12-10T09:25:43;33.97;;;19.03;;
54408;SDS011;40315;48.620;9.828;2022-12-10T09:28:12;35.77;;;19.77;;
54408;SDS011;40315;48.620;9.828;2022-12-10T09:30:42;36.87;;;18.80;;
54408;SDS011;40315;48.620;9.828;2022-12-10T09:33:09;38.57;;;19.90;;
54408;SDS011;40315;48.620;9.828;2022-12-10T09:35:39;32.97;;;18.93;;
54408;SDS011;40315;48.620;9.828;2022-12-10T09:38:07;37.50;;;20.00;;
54408;SDS011;40315;48.620;9.828;2022-12-10T09:40:39;35.33;;;19.50;;
54408;SDS011;40315;48.620;9.828;2022-12-10T09:43:12;34.53;;;19.00;;
54408;SDS011;40315;48.620;9.828;2022-12-10T09:45:53;40.40;;;21.73;;
54408;SDS011;40315;48.620;9.828;2022-12-10T09:48:32;39.17;;;20.80;;
54408;SDS011;40315;48.620;9.828;2022-12-10T09:51:08;40.67;;;20.33;;
54408;SDS011;40315;48.620;9.828;2022-12-10T09:53:43;47.40;;;23.13;;
54408;SDS011;40315;48.620;9.828;2022-12-10T09:56:14;45.03;;;22.47;;
54408;SDS011;40315;48.620;9.828;2022-12-10T09:58:49;48.20;;;23.07;;
54408;SDS011;40315;48.620;9.828;2022-12-10T10:01:17;41.20;;;21.50;;
54408;SDS011;40315;48.620;9.828;2022-12-10T10:03:55;40.37;;;20.63;;
54408;SDS011;40315;48.620;9.828;2022-12-10T10:06:22;37.17;;;19.63;;
54408;SDS011;40315;48.620;9.828;2022-12-10T10:08:53;35.27;;;19.53;;
54408;SDS011;40315;48.620;9.828;2022-12-10T10:11:28;38.50;;;20.60;;
54408;SDS011;40315;48.620;9.828;2022-12-10T10:14:00;36.90;;;19.57;;
54408;SDS011;40315;48.620;9.828;2022-12-10T10:16:32;29.40;;;17.67;;
54408;SDS011;40315;48.620;9.828;2022-12-10T10:19:03;34.97;;;18.97;;
54408;SDS011;40315;48.620;9.828;2022-12-10T10:21:32;32.23;;;18.17;;
54408;SDS011;40315;48.620;9.828;2022-12-10T10:24:05;32.33;;;18.47;;
54408;SDS011;40315;48.620;9.828;2022-12-10T10:26:37;32.90;;;18.07;;
54408;SDS011;40315;48.620;9.828;2022-12-10T10:29:06;32.37;;;17.87;;
54408;SDS011;40315;48.620;9.828;2022-12-10T10:31:38;41.87;;;20.83;;
54408;SDS011;40315;48.620;9.828;2022-12-10T10:34:11;52.47;;;23.40;;
54408;SDS011;40315;48.620;9.828;2022-12-10T10:36:41;38.87;;;20.13;;
54408;SDS011;40315;48.620;9.828;2022-12-10T10:39:09;33.93;;;17.80;;
54408;SDS011;40315;48.620;9.828;2022-12-10T10:41:37;34.03;;;18.67;;
54408;SDS011;40315;48.620;9.828;2022-12-10T10:44:13;28.23;;;16.23;;
54408;SDS011;40315;48.620;9.828;2022-12-10T10:46:44;26.63;;;15.27;;
54408;SDS011;40315;48.620;9.828;2022-12-10T10:49:14;35.20;;;18.00;;
54408;SDS011;40315;48.620;9.828;2022-12-10T10:51:48;33.17;;;17.83;;
54408;SDS011;40315;48.620;9.828;2022-12-10T10:54:30;27.70;;;16.23;;
54408;SDS011;40315;48.620;9.828;2022-12-10T10:57:00;39.10;;;18.87;;
54408;SDS011;40315;48.620;9.828;2022-12-10T10:59:32;30.83;;;16.80;;
54408;SDS011;40315;48.620;9.828;2022-12-10T11:02:04;43.90;;;19.57;;
54408;SDS011;40315;48.620;9.828;2022-12-10T11:04:44;41.10;;;19.87;;
54408;SDS011;40315;48.620;9.828;2022-12-10T11:07:15;41.63;;;20.00;;
54408;SDS011;40315;48.620;9.828;2022-12-10T11:09:46;38.57;;;19.50;;
54408;SDS011;40315;48.620;9.828;2022-12-10T11:12:23;27.43;;;16.00;;
54408;SDS011;40315;48.620;9.828;2022-12-10T11:14:57;33.50;;;17.33;;
54408;SDS011;40315;48.620;9.828;2022-12-10T11:17:25;37.97;;;19.13;;
54408;SDS011;40315;48.620;9.828;2022-12-10T11:19:54;36.63;;;18.03;;
54408;SDS011;40315;48.620;9.828;2022-12-10T11:22:26;24.40;;;13.50;;
54408;SDS011;40315;48.620;9.828;2022-12-10T11:24:55;24.07;;;14.13;;
54408;SDS011;40315;48.620;9.828;2022-12-10T11:30:20;32.27;;;17.13;;
54408;SDS011;40315;48.620;9.828;2022-12-10T11:32:52;32.20;;;18.10;;
54408;SDS011;40315;48.620;9.828;2022-12-10T11:35:30;26.33;;;14.13;;
54408;SDS011;40315;48.620;9.828;2022-12-10T11:38:09;25.47;;;14.53;;
54408;SDS011;40315;48.620;9.828;2022-12-10T11:40:46;34.63;;;17.73;;
54408;SDS011;40315;48.620;9.828;2022-12-10T11:43:20;25.77;;;15.73;;
54408;SDS011;40315;48.620;9.828;2022-12-10T11:46:01;25.30;;;14.83;;
54408;SDS011;40315;48.620;9.828;2022-12-10T11:48:41;24.30;;;14.33;;
54408;SDS011;40315;48.620;9.828;2022-12-10T11:51:18;23.20;;;14.10;;
54408;SDS011;40315;48.620;9.828;2022-12-10T11:54:00;26.90;;;15.20;;
54408;SDS011;40315;48.620;9.828;2022-12-10T11:56:40;28.50;;;15.93;;
54408;SDS011;40315;48.620;9.828;2022-12-10T11:59:14;27.00;;;15.00;;
54408;SDS011;40315;48.620;9.828;2022-12-10T12:01:55;24.47;;;14.43;;
54408;SDS011;40315;48.620;9.828;2022-12-10T12:04:47;26.43;;;14.20;;
54408;SDS011;40315;48.620;9.828;2022-12-10T12:07:29;24.07;;;14.80;;
54408;SDS011;40315;48.620;9.828;2022-12-10T12:10:14;21.77;;;14.17;;
54408;SDS011;40315;48.620;9.828;2022-12-10T12:12:57;22.43;;;14.10;;
54408;SDS011;40315;48.620;9.828;2022-12-10T12:15:27;23.97;;;13.50;;
54408;SDS011;40315;48.620;9.828;2022-12-10T12:17:59;22.47;;;12.63;;
54408;SDS011;40315;48.620;9.828;2022-12-10T12:20:31;19.03;;;11.10;;
54408;SDS011;40315;48.620;9.828;2022-12-10T12:23:02;21.53;;;13.13;;
54408;SDS011;40315;48.620;9.828;2022-12-10T12:25:36;21.10;;;12.37;;
54408;SDS011;40315;48.620;9.828;2022-12-10T12:28:11;19.73;;;12.20;;
54408;SDS011;40315;48.620;9.828;2022-12-10T12:30:41;20.47;;;11.77;;
54408;SDS011;40315;48.620;9.828;2022-12-10T12:33:16;23.00;;;13.63;;
54408;SDS011;40315;48.620;9.828;2022-12-10T12:35:50;21.53;;;12.40;;
54408;SDS011;40315;48.620;9.828;2022-12-10T12:38:27;27.07;;;16.23;;
54408;SDS011;40315;48.620;9.828;2022-12-10T12:40:56;24.33;;;15.33;;
54408;SDS011;40315;48.620;9.828;2022-12-10T12:43:28;23.17;;;13.93;;
54408;SDS011;40315;48.620;9.828;2022-12-10T12:46:10;23.97;;;14.17;;
54408;SDS011;40315;48.620;9.828;2022-12-10T12:48:44;23.20;;;13.97;;
54408;SDS011;40315;48.620;9.828;2022-12-10T12:51:18;27.60;;;16.17;;
54408;SDS011;40315;48.620;9.828;2022-12-10T12:53:49;25.30;;;14.90;;
54408;SDS011;40315;48.620;9.828;2022-12-10T12:56:21;22.40;;;14.10;;
54408;SDS011;40315;48.620;9.828;2022-12-10T12:59:00;23.27;;;12.83;;
54408;SDS011;40315;48.620;9.828;2022-12-10T13:01:37;22.07;;;13.37;;
54408;SDS011;40315;48.620;9.828;2022-12-10T13:04:11;22.53;;;13.27;;
54408;SDS011;40315;48.620;9.828;2022-12-10T13:06:39;22.13;;;12.87;;
54408;SDS011;40315;48.620;9.828;2022-12-10T13:09:22;23.27;;;13.27;;
54408;SDS011;40315;48.620;9.828;2022-12-10T13:15:01;21.10;;;11.73;;
54408;SDS011;40315;48.620;9.828;2022-12-10T13:17:39;22.10;;;11.67;;
54408;SDS011;40315;48.620;9.828;2022-12-10T13:20:33;18.73;;;11.53;;
54408;SDS011;40315;48.620;9.828;2022-12-10T13:23:02;21.67;;;11.40;;
54408;SDS011;40315;48.620;9.828;2022-12-10T13:25:37;21.23;;;12.00;;
54408;SDS011;40315;48.620;9.828;2022-12-10T13:28:26;19.90;;;11.60;;
54408;SDS011;40315;48.620;9.828;2022-12-10T13:31:07;22.40;;;11.83;;
54408;SDS011;40315;48.620;9.828;2022-12-10T13:34:04;19.53;;;11.73;;
54408;SDS011;40315;48.620;9.828;2022-12-10T13:39:34;19.57;;;11.17;;
54408;SDS011;40315;48.620;9.828;2022-12-10T13:42:25;18.63;;;11.43;;
54408;SDS011;40315;48.620;9.828;2022-12-10T13:45:29;19.33;;;11.00;;
54408;SDS011;40315;48.620;9.828;2022-12-10T13:50:44;19.73;;;11.73;;
54408;SDS011;40315;48.620;9.828;2022-12-10T13:53:18;19.90;;;12.07;;
54408;SDS011;40315;48.620;9.828;2022-12-10T13:56:07;21.27;;;12.53;;
54408;SDS011;40315;48.620;9.828;2022-12-10T13:58:42;21.37;;;12.27;;
54408;SDS011;40315;48.620;9.828;2022-12-10T14:01:20;22.33;;;12.97;;
54408;SDS011;40315;48.620;9.828;2022-12-10T14:04:13;19.93;;;11.50;;
54408;SDS011;40315;48.620;9.828;2022-12-10T14:06:51;22.83;;;12.50;;
54408;SDS011;40315;48.620;9.828;2022-12-10T14:09:21;21.73;;;12.50;;
54408;SDS011;40315;48.620;9.828;2022-12-10T14:11:53;24.50;;;14.30;;
54408;SDS011;40315;48.620;9.828;2022-12-10T14:14:23;22.80;;;13.00;;
54408;SDS011;40315;48.620;9.828;2022-12-10T14:16:59;21.40;;;12.53;;
54408;SDS011;40315;48.620;9.828;2022-12-10T14:19:27;22.33;;;13.13;;
54408;SDS011;40315;48.620;9.828;2022-12-10T14:21:57;22.93;;;13.03;;
54408;SDS011;40315;48.620;9.828;2022-12-10T14:24:34;22.53;;;13.10;;
54408;SDS011;40315;48.620;9.828;2022-12-10T14:27:05;21.93;;;13.03;;
54408;SDS011;40315;48.620;9.828;2022-12-10T14:29:42;22.13;;;12.83;;
54408;SDS011;40315;48.620;9.828;2022-12-10T14:32:12;23.37;;;12.37;;
54408;SDS011;40315;48.620;9.828;2022-12-10T14:34:41;23.03;;;13.30;;
54408;SDS011;40315;48.620;9.828;2022-12-10T14:37:13;19.67;;;12.67;;
54408;SDS011;40315;48.620;9.828;2022-12-10T14:39:42;20.57;;;12.57;;
54408;SDS011;40315;48.620;9.828;2022-12-10T14:42:12;21.50;;;12.10;;
54408;SDS011;40315;48.620;9.828;2022-12-10T14:44:43;21.03;;;12.67;;
54408;SDS011;40315;48.620;9.828;2022-12-10T14:47:16;23.50;;;12.20;;
54408;SDS011;40315;48.620;9.828;2022-12-10T14:49:46;22.63;;;12.70;;
54408;SDS011;40315;48.620;9.828;2022-12-10T14:52:15;22.83;;;13.40;;
54408;SDS011;40315;48.620;9.828;2022-12-10T14:54:45;22.00;;;12.70;;
54408;SDS011;40315;48.620;9.828;2022-12-10T14:57:15;21.67;;;13.40;;
54408;SDS011;40315;48.620;9.828;2022-12-10T14:59:45;22.83;;;13.03;;
54408;SDS011;40315;48.620;9.828;2022-12-10T15:02:18;23.73;;;12.97;;